Blue Star Naxos — SZUI — position and weather

sailwx.info

Track history (hours):
 
Tides and Currents Weather Stations Pressure Air Temp Water Temp Dewpoint Dewpoint Depression Visibility Wind Speed Wind Dir Waves Ship Positions

Blue Star Naxos

Last reported at 2015-Jul-01 01:34 UTC. Time now 2015-Jul-01 01:52 UTC.
Position N 37°56' E 023°37'.

Length 124 m; draft 5 m.

Type: Passenger vessel. MMSI: 239923000.

Date/timePositionNaut miles runAvg speedWind from/ knotsBaromVisibWave heightAir tempDewpointWater temp
2015-Jul-01 01:34N 37°56' E 023°37'1818.2
2015-Jul-01 00:33N 37°40' E 023°48'5819.5
2015-Jun-30 21:34N 37°14' E 024°54'1514.4
2015-Jun-30 20:32N 37°05' E 025°09'1010.2
2015-Jun-30 19:33N 37°07' E 025°21'6 5.6
2015-Jun-30 18:33N 37°02' E 025°19'1413.4
2015-Jun-30 17:33N 36°52' E 025°31'9 8.4
2015-Jun-30 16:32N 36°55' E 025°41'0 0.1
2015-Jun-30 11:33N 36°55' E 025°41'9 9.0
2015-Jun-30 10:33N 36°52' E 025°31'1313.3
2015-Jun-30 09:33N 37°01' E 025°19'10 9.5
2015-Jun-30 08:33N 37°08' E 025°11'1212.3
2015-Jun-30 07:34N 37°12' E 024°56'6722.2
2015-Jun-30 04:34N 37°42' E 023°41'1514.6
2015-Jun-30 03:33N 37°57' E 023°38'0 0.0
2015-Jun-30 02:33N 37°57' E 023°38'0 0.0
2015-Jun-30 01:33N 37°57' E 023°38'0 0.0
2015-Jun-30 00:33N 37°57' E 023°38'0 0.0
2015-Jun-29 23:33N 37°57' E 023°38'0 0.0
2015-Jun-29 22:33N 37°57' E 023°38'0 0.0
2015-Jun-29 21:33N 37°57' E 023°38'0 0.0
2015-Jun-29 20:33N 37°57' E 023°38'0 0.0
2015-Jun-29 19:33N 37°57' E 023°38'0 0.0
2015-Jun-29 18:33N 37°57' E 023°38'0 0.0
2015-Jun-29 17:33N 37°57' E 023°38'4 4.4
2015-Jun-29 16:33N 37°53' E 023°39'2120.9
2015-Jun-29 15:33N 37°37' E 023°57'4522.4
2015-Jun-29 13:32N 37°31' E 024°54'6 5.7
2015-Jun-29 12:33N 37°26' E 024°57'1413.9
2015-Jun-29 11:33N 37°30' E 025°14'5 5.1
2015-Jun-29 10:33N 37°28' E 025°19'8 7.7
2015-Jun-29 09:34N 37°31' E 025°11'1211.8
2015-Jun-29 08:33N 37°26' E 024°57'5719.0
2015-Jun-29 05:33N 37°39' E 023°47'1918.8
2015-Jun-29 04:33N 37°57' E 023°38'0 0.2
2015-Jun-29 03:33N 37°57' E 023°38'0 0.0
2015-Jun-29 02:33N 37°57' E 023°38'2 1.9
2015-Jun-29 01:33N 37°55' E 023°37'1919.0
2015-Jun-29 00:33N 37°39' E 023°50'4519.2
2015-Jun-28 22:13N 37°23' E 024°42'1320.0
2015-Jun-28 21:33N 37°14' E 024°55'1413.9
2015-Jun-28 20:32N 37°05' E 025°09'1110.7
2015-Jun-28 19:33N 37°06' E 025°22'7 7.3
2015-Jun-28 18:33N 36°59' E 025°20'1111.0
2015-Jun-28 17:33N 36°52' E 025°31'9 8.9
2015-Jun-28 16:33N 36°55' E 025°41'9 1.9
2015-Jun-28 12:06N 36°50' E 025°50'1222.2
2015-Jun-28 11:33N 36°55' E 025°37'7 6.9
2015-Jun-28 10:33N 36°52' E 025°29'1515.5
2015-Jun-28 09:33N 37°05' E 025°19'8 8.4
2015-Jun-28 08:33N 37°07' E 025°09'1212.5
2015-Jun-28 07:33N 37°13' E 024°55'6622.1
2015-Jun-28 04:33N 37°43' E 023°41'1413.6
2015-Jun-28 03:33N 37°57' E 023°38'0 0.0
2015-Jun-28 02:33N 37°57' E 023°38'0 0.0
2015-Jun-28 01:33N 37°57' E 023°38'0 0.0
2015-Jun-28 00:33N 37°57' E 023°38'0 0.0
2015-Jun-27 23:33N 37°57' E 023°38'0 0.0
2015-Jun-27 22:33N 37°57' E 023°38'0 0.0
2015-Jun-27 21:33N 37°57' E 023°38'0 0.0
2015-Jun-27 20:33N 37°57' E 023°38'0 0.0
2015-Jun-27 19:33N 37°57' E 023°38'0 0.0
2015-Jun-27 18:33N 37°57' E 023°38'0 0.0
2015-Jun-27 17:33N 37°57' E 023°38'3 2.7
2015-Jun-27 16:34N 37°54' E 023°38'2120.5
2015-Jun-27 15:33N 37°38' E 023°54'4422.3
2015-Jun-27 13:33N 37°31' E 024°49'8 8.2
2015-Jun-27 12:34N 37°26' E 024°57'1414.2
2015-Jun-27 11:33N 37°29' E 025°15'4 3.8
2015-Jun-27 10:33N 37°28' E 025°19'9 9.2
2015-Jun-27 09:33N 37°32' E 025°09'1211.7
2015-Jun-27 08:33N 37°26' E 024°57'5819.2
2015-Jun-27 05:33N 37°40' E 023°46'1818.2
2015-Jun-27 04:33N 37°57' E 023°38'0 0.0
2015-Jun-27 03:33N 37°57' E 023°38'0 0.0
2015-Jun-27 02:33N 37°57' E 023°38'0 0.0
2015-Jun-27 01:33N 37°57' E 023°38'0 0.0
2015-Jun-27 00:33N 37°57' E 023°38'0 0.0
2015-Jun-26 23:33N 37°57' E 023°38'0 0.0
2015-Jun-26 22:33N 37°57' E 023°38'0 0.0
2015-Jun-26 21:33N 37°57' E 023°38'0 0.0
2015-Jun-26 20:33N 37°57' E 023°38'0 0.0
2015-Jun-26 19:33N 37°57' E 023°38'0 0.0
2015-Jun-26 18:33N 37°57' E 023°38'0 0.0
2015-Jun-26 17:33N 37°57' E 023°38'4 3.7
2015-Jun-26 16:33N 37°53' E 023°38'6220.7
2015-Jun-26 13:33N 37°31' E 024°51'7 6.7
2015-Jun-26 12:33N 37°26' E 024°57'1414.1
2015-Jun-26 11:33N 37°29' E 025°14'5 4.6
2015-Jun-26 10:33N 37°28' E 025°19'1111.2
2015-Jun-26 09:34N 37°30' E 025°06'8 8.4
2015-Jun-26 08:33N 37°26' E 024°57'6019.9
2015-Jun-26 05:33N 37°40' E 023°43'17 1.0
2015-Jun-25 12:34N 37°57' E 023°38'8 8.4
2015-Jun-25 11:33N 37°49' E 023°41'6622.0
2015-Jun-25 08:33N 37°15' E 024°52'1616.1
2015-Jun-25 07:32N 37°05' E 025°09'1110.8
2015-Jun-25 06:34N 37°06' E 025°22'1010.3
2015-Jun-25 05:33N 37°13' E 025°32'1817.3
2015-Jun-25 04:32N 37°02' E 025°49'1312.4
2015-Jun-25 03:29N 36°56' E 026°04'23 7.5
2015-Jun-25 00:25N 36°36' E 026°19'2022.4
2015-Jun-24 23:33N 36°53' E 026°07'1110.6
2015-Jun-24 22:31N 36°57' E 025°54'1718.2
2015-Jun-24 21:34N 37°10' E 025°40'1414.3
2015-Jun-24 20:33N 37°06' E 025°22'1110.9
2015-Jun-24 19:33N 37°05' E 025°09'1010.3
2015-Jun-24 18:33N 37°11' E 024°58'6621.8
2015-Jun-24 15:33N 37°40' E 023°44'1717.5
2015-Jun-24 14:33N 37°57' E 023°38'0 0.0
2015-Jun-24 13:33N 37°57' E 023°38'0 0.0
2015-Jun-24 12:33N 37°57' E 023°38'8 7.7
2015-Jun-24 11:34N 37°49' E 023°41'5421.7
2015-Jun-24 09:03N 37°23' E 024°41'1122.8
2015-Jun-24 08:34N 37°16' E 024°52'1716.6
2015-Jun-24 07:32N 37°05' E 025°09'1110.8
2015-Jun-24 06:34N 37°06' E 025°22'5 5.3
2015-Jun-24 05:34N 37°02' E 025°19'1312.7
2015-Jun-24 04:30N 36°52' E 025°31'1010.0
2015-Jun-24 03:33N 36°55' E 025°42'6 2.0
2015-Jun-24 00:20N 36°51' E 025°48'1113.9
2015-Jun-23 23:32N 36°56' E 025°36'9 8.0
2015-Jun-23 22:26N 36°54' E 025°25'1314.7
2015-Jun-23 21:33N 37°06' E 025°22'1110.5
2015-Jun-23 20:33N 37°08' E 025°09'6 5.6
2015-Jun-23 19:33N 37°12' E 025°05'1022.4
2015-Jun-23 19:05N 37°22' E 024°60'17 0.7
2015-Jun-22 19:33N 37°05' E 025°08'9 8.9
2015-Jun-22 18:34N 37°11' E 024°59'6421.1
2015-Jun-22 15:33N 37°39' E 023°47'1919.3
2015-Jun-22 14:33N 37°56' E 023°38'1 0.6
2015-Jun-22 13:33N 37°57' E 023°38'0 0.0
2015-Jun-22 12:33N 37°57' E 023°38'9 9.4
2015-Jun-22 11:34N 37°48' E 023°41'6521.8
2015-Jun-22 08:33N 37°14' E 024°52'1615.9
2015-Jun-22 07:33N 37°05' E 025°09'1110.7
2015-Jun-22 06:34N 37°06' E 025°22'6 5.5
2015-Jun-22 05:33N 37°02' E 025°19'1313.3
2015-Jun-22 04:33N 36°52' E 025°31'7 7.1
2015-Jun-22 03:33N 36°55' E 025°39'10 2.9
2015-Jun-22 00:05N 36°50' E 025°49'1121.6
2015-Jun-21 23:33N 36°55' E 025°37'7 7.0
2015-Jun-21 22:33N 36°52' E 025°29'1515.1
2015-Jun-21 21:33N 37°04' E 025°19'7 7.1
2015-Jun-21 20:34N 37°09' E 025°12'5 5.3
2015-Jun-21 19:34N 37°10' E 025°05'1817.4
2015-Jun-21 18:33N 37°26' E 024°57'5719.0
2015-Jun-21 15:33N 37°39' E 023°47'1919.3
2015-Jun-21 14:34N 37°56' E 023°38'1 0.5
2015-Jun-21 13:34N 37°57' E 023°38'0 0.0
2015-Jun-21 12:33N 37°57' E 023°38'9 8.9
2015-Jun-21 11:33N 37°48' E 023°41'6622.1
2015-Jun-21 08:34N 37°14' E 024°53'1615.4
2015-Jun-21 07:33N 37°05' E 025°09'1010.3
2015-Jun-21 06:33N 37°07' E 025°22'9 8.6
2015-Jun-21 05:34N 37°12' E 025°30'1717.3
2015-Jun-21 04:33N 37°03' E 025°48'1312.6
2015-Jun-21 03:33N 36°57' E 026°02'2322.5
2015-Jun-21 02:32N 36°38' E 026°18'  
Track history (hours):
 
Tides and Currents Weather Stations Pressure Air Temp Water Temp Dewpoint Dewpoint Depression Visibility Wind Speed Wind Dir Waves Ship Positions

Blue Star Naxos

Last reported at 2015-Jul-01 01:34 UTC. Time now 2015-Jul-01 01:52 UTC.
Position N 37°56' E 023°37'.

Length 124 m; draft 5 m.

Type: Passenger vessel. MMSI: 239923000.

Date/timePositionNaut miles runAvg speedWind from/ knotsBaromVisibWave heightAir tempDewpointWater temp
2015-Jul-01 01:34N 37°56' E 023°37'1818.2
2015-Jul-01 00:33N 37°40' E 023°48'5819.5
2015-Jun-30 21:34N 37°14' E 024°54'1514.4
2015-Jun-30 20:32N 37°05' E 025°09'1010.2
2015-Jun-30 19:33N 37°07' E 025°21'6 5.6
2015-Jun-30 18:33N 37°02' E 025°19'1413.4
2015-Jun-30 17:33N 36°52' E 025°31'9 8.4
2015-Jun-30 16:32N 36°55' E 025°41'0 0.1
2015-Jun-30 11:33N 36°55' E 025°41'9 9.0
2015-Jun-30 10:33N 36°52' E 025°31'1313.3
2015-Jun-30 09:33N 37°01' E 025°19'10 9.5
2015-Jun-30 08:33N 37°08' E 025°11'1212.3
2015-Jun-30 07:34N 37°12' E 024°56'6722.2
2015-Jun-30 04:34N 37°42' E 023°41'1514.6
2015-Jun-30 03:33N 37°57' E 023°38'0 0.0
2015-Jun-30 02:33N 37°57' E 023°38'0 0.0
2015-Jun-30 01:33N 37°57' E 023°38'0 0.0
2015-Jun-30 00:33N 37°57' E 023°38'0 0.0
2015-Jun-29 23:33N 37°57' E 023°38'0 0.0
2015-Jun-29 22:33N 37°57' E 023°38'0 0.0
2015-Jun-29 21:33N 37°57' E 023°38'0 0.0
2015-Jun-29 20:33N 37°57' E 023°38'0 0.0
2015-Jun-29 19:33N 37°57' E 023°38'0 0.0
2015-Jun-29 18:33N 37°57' E 023°38'0 0.0
2015-Jun-29 17:33N 37°57' E 023°38'4 4.4
2015-Jun-29 16:33N 37°53' E 023°39'2120.9
2015-Jun-29 15:33N 37°37' E 023°57'4522.4
2015-Jun-29 13:32N 37°31' E 024°54'6 5.7
2015-Jun-29 12:33N 37°26' E 024°57'1413.9
2015-Jun-29 11:33N 37°30' E 025°14'5 5.1
2015-Jun-29 10:33N 37°28' E 025°19'8 7.7
2015-Jun-29 09:34N 37°31' E 025°11'1211.8
2015-Jun-29 08:33N 37°26' E 024°57'5719.0
2015-Jun-29 05:33N 37°39' E 023°47'1918.8
2015-Jun-29 04:33N 37°57' E 023°38'0 0.2
2015-Jun-29 03:33N 37°57' E 023°38'0 0.0
2015-Jun-29 02:33N 37°57' E 023°38'2 1.9
2015-Jun-29 01:33N 37°55' E 023°37'1919.0
2015-Jun-29 00:33N 37°39' E 023°50'4519.2
2015-Jun-28 22:13N 37°23' E 024°42'1320.0
2015-Jun-28 21:33N 37°14' E 024°55'1413.9
2015-Jun-28 20:32N 37°05' E 025°09'1110.7
2015-Jun-28 19:33N 37°06' E 025°22'7 7.3
2015-Jun-28 18:33N 36°59' E 025°20'1111.0
2015-Jun-28 17:33N 36°52' E 025°31'9 8.9
2015-Jun-28 16:33N 36°55' E 025°41'9 1.9
2015-Jun-28 12:06N 36°50' E 025°50'1222.2
2015-Jun-28 11:33N 36°55' E 025°37'7 6.9
2015-Jun-28 10:33N 36°52' E 025°29'1515.5
2015-Jun-28 09:33N 37°05' E 025°19'8 8.4
2015-Jun-28 08:33N 37°07' E 025°09'1212.5
2015-Jun-28 07:33N 37°13' E 024°55'6622.1
2015-Jun-28 04:33N 37°43' E 023°41'1413.6
2015-Jun-28 03:33N 37°57' E 023°38'0 0.0
2015-Jun-28 02:33N 37°57' E 023°38'0 0.0
2015-Jun-28 01:33N 37°57' E 023°38'0 0.0
2015-Jun-28 00:33N 37°57' E 023°38'0 0.0
2015-Jun-27 23:33N 37°57' E 023°38'0 0.0
2015-Jun-27 22:33N 37°57' E 023°38'0 0.0
2015-Jun-27 21:33N 37°57' E 023°38'0 0.0
2015-Jun-27 20:33N 37°57' E 023°38'0 0.0
2015-Jun-27 19:33N 37°57' E 023°38'0 0.0
2015-Jun-27 18:33N 37°57' E 023°38'0 0.0
2015-Jun-27 17:33N 37°57' E 023°38'3 2.7
2015-Jun-27 16:34N 37°54' E 023°38'2120.5
2015-Jun-27 15:33N 37°38' E 023°54'4422.3
2015-Jun-27 13:33N 37°31' E 024°49'8 8.2
2015-Jun-27 12:34N 37°26' E 024°57'1414.2
2015-Jun-27 11:33N 37°29' E 025°15'4 3.8
2015-Jun-27 10:33N 37°28' E 025°19'9 9.2
2015-Jun-27 09:33N 37°32' E 025°09'1211.7
2015-Jun-27 08:33N 37°26' E 024°57'5819.2
2015-Jun-27 05:33N 37°40' E 023°46'1818.2
2015-Jun-27 04:33N 37°57' E 023°38'0 0.0
2015-Jun-27 03:33N 37°57' E 023°38'0 0.0
2015-Jun-27 02:33N 37°57' E 023°38'0 0.0
2015-Jun-27 01:33N 37°57' E 023°38'0 0.0
2015-Jun-27 00:33N 37°57' E 023°38'0 0.0
2015-Jun-26 23:33N 37°57' E 023°38'0 0.0
2015-Jun-26 22:33N 37°57' E 023°38'0 0.0
2015-Jun-26 21:33N 37°57' E 023°38'0 0.0
2015-Jun-26 20:33N 37°57' E 023°38'0 0.0
2015-Jun-26 19:33N 37°57' E 023°38'0 0.0
2015-Jun-26 18:33N 37°57' E 023°38'0 0.0
2015-Jun-26 17:33N 37°57' E 023°38'4 3.7
2015-Jun-26 16:33N 37°53' E 023°38'6220.7
2015-Jun-26 13:33N 37°31' E 024°51'7 6.7
2015-Jun-26 12:33N 37°26' E 024°57'1414.1
2015-Jun-26 11:33N 37°29' E 025°14'5 4.6
2015-Jun-26 10:33N 37°28' E 025°19'1111.2
2015-Jun-26 09:34N 37°30' E 025°06'8 8.4
2015-Jun-26 08:33N 37°26' E 024°57'6019.9
2015-Jun-26 05:33N 37°40' E 023°43'17 1.0
2015-Jun-25 12:34N 37°57' E 023°38'8 8.4
2015-Jun-25 11:33N 37°49' E 023°41'6622.0
2015-Jun-25 08:33N 37°15' E 024°52'1616.1
2015-Jun-25 07:32N 37°05' E 025°09'1110.8
2015-Jun-25 06:34N 37°06' E 025°22'1010.3
2015-Jun-25 05:33N 37°13' E 025°32'1817.3
2015-Jun-25 04:32N 37°02' E 025°49'1312.4
2015-Jun-25 03:29N 36°56' E 026°04'23 7.5
2015-Jun-25 00:25N 36°36' E 026°19'2022.4
2015-Jun-24 23:33N 36°53' E 026°07'1110.6
2015-Jun-24 22:31N 36°57' E 025°54'1718.2
2015-Jun-24 21:34N 37°10' E 025°40'1414.3
2015-Jun-24 20:33N 37°06' E 025°22'1110.9
2015-Jun-24 19:33N 37°05' E 025°09'1010.3
2015-Jun-24 18:33N 37°11' E 024°58'6621.8
2015-Jun-24 15:33N 37°40' E 023°44'1717.5
2015-Jun-24 14:33N 37°57' E 023°38'0 0.0
2015-Jun-24 13:33N 37°57' E 023°38'0 0.0
2015-Jun-24 12:33N 37°57' E 023°38'8 7.7
2015-Jun-24 11:34N 37°49' E 023°41'5421.7
2015-Jun-24 09:03N 37°23' E 024°41'1122.8
2015-Jun-24 08:34N 37°16' E 024°52'1716.6
2015-Jun-24 07:32N 37°05' E 025°09'1110.8
2015-Jun-24 06:34N 37°06' E 025°22'5 5.3
2015-Jun-24 05:34N 37°02' E 025°19'1312.7
2015-Jun-24 04:30N 36°52' E 025°31'1010.0
2015-Jun-24 03:33N 36°55' E 025°42'6 2.0
2015-Jun-24 00:20N 36°51' E 025°48'1113.9
2015-Jun-23 23:32N 36°56' E 025°36'9 8.0
2015-Jun-23 22:26N 36°54' E 025°25'1314.7
2015-Jun-23 21:33N 37°06' E 025°22'1110.5
2015-Jun-23 20:33N 37°08' E 025°09'6 5.6
2015-Jun-23 19:33N 37°12' E 025°05'1022.4
2015-Jun-23 19:05N 37°22' E 024°60'17 0.7
2015-Jun-22 19:33N 37°05' E 025°08'9 8.9
2015-Jun-22 18:34N 37°11' E 024°59'6421.1
2015-Jun-22 15:33N 37°39' E 023°47'1919.3
2015-Jun-22 14:33N 37°56' E 023°38'1 0.6
2015-Jun-22 13:33N 37°57' E 023°38'0 0.0
2015-Jun-22 12:33N 37°57' E 023°38'9 9.4
2015-Jun-22 11:34N 37°48' E 023°41'6521.8
2015-Jun-22 08:33N 37°14' E 024°52'1615.9
2015-Jun-22 07:33N 37°05' E 025°09'1110.7
2015-Jun-22 06:34N 37°06' E 025°22'6 5.5
2015-Jun-22 05:33N 37°02' E 025°19'1313.3
2015-Jun-22 04:33N 36°52' E 025°31'7 7.1
2015-Jun-22 03:33N 36°55' E 025°39'10 2.9
2015-Jun-22 00:05N 36°50' E 025°49'1121.6
2015-Jun-21 23:33N 36°55' E 025°37'7 7.0
2015-Jun-21 22:33N 36°52' E 025°29'1515.1
2015-Jun-21 21:33N 37°04' E 025°19'7 7.1
2015-Jun-21 20:34N 37°09' E 025°12'5 5.3
2015-Jun-21 19:34N 37°10' E 025°05'1817.4
2015-Jun-21 18:33N 37°26' E 024°57'5719.0
2015-Jun-21 15:33N 37°39' E 023°47'1919.3
2015-Jun-21 14:34N 37°56' E 023°38'1 0.5
2015-Jun-21 13:34N 37°57' E 023°38'0 0.0
2015-Jun-21 12:33N 37°57' E 023°38'9 8.9
2015-Jun-21 11:33N 37°48' E 023°41'6622.1
2015-Jun-21 08:34N 37°14' E 024°53'1615.4
2015-Jun-21 07:33N 37°05' E 025°09'1010.3
2015-Jun-21 06:33N 37°07' E 025°22'9 8.6
2015-Jun-21 05:34N 37°12' E 025°30'1717.3
2015-Jun-21 04:33N 37°03' E 025°48'1312.6
2015-Jun-21 03:33N 36°57' E 026°02'2322.5
2015-Jun-21 02:32N 36°38' E 026°18'  

Dump ship's entire track history